Time;durP1;ratioP1;P1;durP2;ratioP2;P2;SDS_P1;SDS_P2;PMS_P1;PMS_P2;Temp;Humidity;BMP_temperature;BMP_pressure;BME280_temperature;BME280_humidity;BME280_pressure;Samples;Min_cycle;Max_cycle;Signal;HPM_P1;HPM_P2
2022/09/30 00:01:09;;;;;;;;;;;8.10;99.90;;;;;;4904210;29;19936;-80
2022/09/30 00:03:35;;;;;;;;;;;8.10;99.90;;;;;;4889187;29;19983;-80
2022/09/30 00:06:03;;;;;;;;;;;8.00;99.90;;;;;;4888842;29;19931;-80
2022/09/30 00:08:29;;;;;;;;;;;8.00;99.90;;;;;;4897248;29;20183;-80
2022/09/30 00:11:10;;;;;;;;;;;8.00;99.90;;;;;;4889215;29;19912;-80
2022/09/30 00:13:37;;;;;;;;;;;8.00;99.90;;;;;;4874560;29;19912;-80
2022/09/30 00:16:03;;;;;;;;;;;8.00;99.90;;;;;;4873962;29;20369;-80
2022/09/30 00:18:29;;;;;;;;;;;8.00;99.90;;;;;;4873490;29;19979;-80
2022/09/30 00:20:54;;;;;;;;;;;8.00;99.90;;;;;;4873481;29;19919;-80
2022/09/30 00:23:21;;;;;;;;;;;7.90;99.90;;;;;;4890082;29;19911;-80
2022/09/30 00:25:47;;;;;;;;;;;7.90;99.90;;;;;;4888893;29;19936;-80
2022/09/30 00:28:13;;;;;;;;;;;7.90;99.90;;;;;;4888771;29;19923;-80
2022/09/30 00:30:39;;;;;;;;;;;7.90;99.90;;;;;;4876314;29;19927;-80
2022/09/30 00:33:05;;;;;;;;;;;7.80;99.90;;;;;;4873527;29;20143;-80
2022/09/30 00:35:31;;;;;;;;;;;7.80;99.90;;;;;;4873336;29;19952;-80
2022/09/30 00:37:56;;;;;;;;;;;7.80;99.90;;;;;;4857782;29;19978;-80
2022/09/30 00:40:22;;;;;;;;;;;7.70;99.90;;;;;;4890904;29;19912;-80
2022/09/30 00:42:48;;;;;;;;;;;7.80;99.90;;;;;;4874023;29;19991;-80
2022/09/30 00:45:16;;;;;;;;;;;7.80;99.90;;;;;;4889198;29;19912;-80
2022/09/30 00:47:49;;;;;;;;;;;7.70;99.90;;;;;;4889578;29;19923;-80
2022/09/30 00:50:54;;;;;;;;;;;7.70;99.90;;;;;;4877191;29;20218;-80
2022/09/30 00:53:28;;;;;;;;;;;7.60;99.90;;;;;;4893246;29;19912;-80
2022/09/30 00:56:15;;;;;;;;;;;7.60;99.90;;;;;;4892486;29;19943;-80
2022/09/30 00:58:46;;;;;;;;;;;7.50;99.90;;;;;;4891858;29;19949;-81
2022/09/30 01:01:13;;;;;;;;;;;7.50;99.90;;;;;;4892189;29;19979;-80
2022/09/30 01:03:52;;;;;;;;;;;7.50;99.90;;;;;;4891893;29;19955;-80
2022/09/30 01:06:19;;;;;;;;;;;7.50;99.90;;;;;;4897757;29;19923;-81
2022/09/30 01:08:45;;;;;;;;;;;7.40;99.90;;;;;;4891704;29;19934;-81
2022/09/30 01:11:11;;;;;;;;;;;7.50;99.90;;;;;;4892485;29;20238;-80
2022/09/30 01:13:36;;;;;;;;;;;7.40;99.90;;;;;;4891971;29;19912;-80
2022/09/30 01:16:13;;;;;;;;;;;7.40;99.90;;;;;;4893257;29;19927;-81
2022/09/30 01:19:11;;;;;;;;;;;7.40;99.90;;;;;;4891369;29;19947;-80
2022/09/30 01:21:58;;;;;;;;;;;7.30;99.90;;;;;;4881689;29;20229;-80
2022/09/30 01:24:42;;;;;;;;;;;7.20;99.90;;;;;;4914734;29;19912;-78
2022/09/30 01:27:35;;;;;;;;;;;7.20;99.90;;;;;;4922260;29;19930;-80
2022/09/30 01:30:12;;;;;;;;;;;7.20;99.90;;;;;;4921415;29;19911;-80
2022/09/30 01:32:48;;;;;;;;;;;7.10;99.90;;;;;;4905673;29;19954;-79
2022/09/30 01:35:32;;;;;;;;;;;7.10;99.90;;;;;;4919536;29;19927;-80
2022/09/30 01:38:07;;;;;;;;;;;7.10;99.90;;;;;;4912489;29;20177;-80
2022/09/30 01:40:43;;;;;;;;;;;7.10;99.90;;;;;;4911280;29;19915;-81
2022/09/30 01:43:11;;;;;;;;;;;7.10;99.90;;;;;;4911169;29;19919;-80
2022/09/30 01:45:43;;;;;;;;;;;7.10;99.90;;;;;;4912285;29;19911;-80
2022/09/30 01:48:42;;;;;;;;;;;7.10;99.90;;;;;;4891884;29;19931;-80
2022/09/30 01:51:11;;;;;;;;;;;7.00;99.90;;;;;;4876273;29;19912;-80
2022/09/30 01:53:42;;;;;;;;;;;7.00;99.90;;;;;;4892231;29;19912;-80
2022/09/30 01:56:17;;;;;;;;;;;7.00;99.90;;;;;;4891825;29;19982;-80
2022/09/30 01:58:52;;;;;;;;;;;6.90;99.90;;;;;;4891741;29;19912;-80
2022/09/30 02:01:42;;;;;;;;;;;6.80;99.90;;;;;;4891616;29;19983;-81
2022/09/30 02:04:40;;;;;;;;;;;6.80;99.90;;;;;;4888792;29;19911;-80
2022/09/30 02:07:08;;;;;;;;;;;6.80;99.90;;;;;;4905417;29;19964;-79
2022/09/30 02:09:40;;;;;;;;;;;6.80;99.90;;;;;;4889674;29;20471;-80
2022/09/30 02:12:07;;;;;;;;;;;6.80;99.90;;;;;;4892365;29;20151;-80
2022/09/30 02:15:07;;;;;;;;;;;6.70;99.90;;;;;;4891167;29;19919;-80
2022/09/30 02:17:41;;;;;;;;;;;6.60;99.90;;;;;;4887373;29;20229;-80
2022/09/30 02:20:31;;;;;;;;;;;6.60;99.90;;;;;;4894894;29;19911;-80
2022/09/30 02:23:05;;;;;;;;;;;6.60;99.90;;;;;;4890372;29;19912;-80
2022/09/30 02:25:41;;;;;;;;;;;6.50;99.90;;;;;;4891787;29;19919;-79
2022/09/30 02:28:08;;;;;;;;;;;6.50;99.90;;;;;;4890052;29;19919;-80
2022/09/30 02:30:35;;;;;;;;;;;6.60;99.90;;;;;;4875074;29;19919;-81
2022/09/30 02:33:03;;;;;;;;;;;6.60;99.90;;;;;;4892097;29;19991;-82
2022/09/30 02:35:39;;;;;;;;;;;6.60;99.90;;;;;;4900665;29;20301;-81
2022/09/30 02:38:09;;;;;;;;;;;6.60;99.90;;;;;;4917243;29;19987;-81
2022/09/30 02:40:38;;;;;;;;;;;6.50;99.90;;;;;;4899077;29;19911;-82
2022/09/30 02:43:04;;;;;;;;;;;6.60;99.90;;;;;;4895000;29;19919;-81
2022/09/30 02:45:30;;;;;;;;;;;6.60;99.90;;;;;;4893881;29;19911;-81
2022/09/30 02:48:30;;;;;;;;;;;6.70;99.90;;;;;;4893827;29;19915;-81
2022/09/30 02:50:59;;;;;;;;;;;6.70;99.90;;;;;;4896326;29;19911;-81
2022/09/30 02:53:47;;;;;;;;;;;6.70;99.90;;;;;;4905562;29;19943;-81
2022/09/30 02:56:23;;;;;;;;;;;6.70;99.90;;;;;;4892564;29;19912;-81
2022/09/30 02:58:49;;;;;;;;;;;6.80;99.90;;;;;;4890280;29;19989;-80
2022/09/30 03:01:15;;;;;;;;;;;6.70;99.90;;;;;;4890637;29;19911;-80
2022/09/30 03:04:02;;;;;;;;;;;6.80;99.90;;;;;;4890163;29;19919;-80
2022/09/30 03:06:28;;;;;;;;;;;6.70;99.90;;;;;;4889456;29;19920;-79
2022/09/30 03:08:53;;;;;;;;;;;6.70;99.90;;;;;;4899785;29;20020;-80
2022/09/30 03:11:24;;;;;;;;;;;6.70;99.90;;;;;;4874003;29;19920;-81
2022/09/30 03:14:08;;;;;;;;;;;6.70;99.90;;;;;;4874658;29;19954;-80
2022/09/30 03:16:49;;;;;;;;;;;6.60;99.90;;;;;;4889686;29;19926;-80
2022/09/30 03:19:41;;;;;;;;;;;6.60;99.90;;;;;;4890913;29;19912;-80
2022/09/30 03:22:10;;;;;;;;;;;6.60;99.90;;;;;;4890549;29;20178;-80
2022/09/30 03:24:44;;;;;;;;;;;6.60;99.90;;;;;;4889315;29;19919;-81
2022/09/30 03:27:33;;;;;;;;;;;6.70;99.90;;;;;;4889081;29;20155;-81
2022/09/30 03:30:18;;;;;;;;;;;6.60;99.90;;;;;;4881451;29;19967;-81
2022/09/30 03:32:51;;;;;;;;;;;6.60;99.90;;;;;;4890754;29;20055;-80
2022/09/30 03:35:25;;;;;;;;;;;6.50;99.90;;;;;;4892987;29;19918;-80
2022/09/30 03:38:00;;;;;;;;;;;6.60;99.90;;;;;;4908376;29;19916;-80
2022/09/30 03:41:07;;;;;;;;;;;6.60;99.90;;;;;;4909261;29;19951;-81
2022/09/30 03:43:38;;;;;;;;;;;6.70;99.90;;;;;;4907639;29;20225;-80
2022/09/30 03:46:14;;;;;;;;;;;6.60;99.90;;;;;;4908135;29;19920;-81
2022/09/30 03:48:40;;;;;;;;;;;6.50;99.90;;;;;;4892795;29;19959;-80
2022/09/30 03:51:06;;;;;;;;;;;6.50;99.90;;;;;;4889110;29;19944;-80
2022/09/30 03:53:37;;;;;;;;;;;6.50;99.90;;;;;;4889587;29;20206;-80
2022/09/30 03:56:02;;;;;;;;;;;6.50;99.90;;;;;;4894100;29;20198;-81
2022/09/30 03:58:28;;;;;;;;;;;6.50;99.90;;;;;;4889423;29;19939;-80
2022/09/30 04:00:55;;;;;;;;;;;6.50;99.90;;;;;;4890748;29;19927;-80
2022/09/30 04:03:22;;;;;;;;;;;6.60;99.90;;;;;;4889369;29;19919;-80
2022/09/30 04:05:48;;;;;;;;;;;6.60;99.90;;;;;;4889847;29;19911;-80
2022/09/30 04:08:13;;;;;;;;;;;6.60;99.90;;;;;;4888488;29;20101;-81
2022/09/30 04:10:40;;;;;;;;;;;6.50;99.90;;;;;;4887948;29;20195;-80
2022/09/30 04:13:06;;;;;;;;;;;6.40;99.90;;;;;;4888233;29;19911;-80
2022/09/30 04:15:33;;;;;;;;;;;6.40;99.90;;;;;;4890570;29;19955;-80
2022/09/30 04:17:58;;;;;;;;;;;6.40;99.90;;;;;;4906288;29;19961;-80
2022/09/30 04:20:24;;;;;;;;;;;6.30;99.90;;;;;;4906697;29;20122;-80
2022/09/30 04:22:50;;;;;;;;;;;6.30;99.90;;;;;;4894316;29;20024;-81
2022/09/30 04:25:16;;;;;;;;;;;6.20;99.90;;;;;;4910720;29;19911;-81
2022/09/30 04:27:41;;;;;;;;;;;6.20;99.90;;;;;;4894889;29;20214;-81
2022/09/30 04:30:07;;;;;;;;;;;6.20;99.90;;;;;;4910456;29;20114;-80
2022/09/30 04:32:33;;;;;;;;;;;6.30;99.90;;;;;;4910379;29;19911;-81
2022/09/30 04:34:58;;;;;;;;;;;6.30;99.90;;;;;;4895000;29;19926;-80
2022/09/30 04:37:24;;;;;;;;;;;6.40;99.90;;;;;;4909796;29;20178;-80
2022/09/30 04:39:50;;;;;;;;;;;6.40;99.90;;;;;;4910016;29;19918;-80
2022/09/30 04:42:17;;;;;;;;;;;6.40;99.90;;;;;;4911045;29;20003;-80
2022/09/30 04:44:42;;;;;;;;;;;6.40;99.90;;;;;;4895557;29;19911;-80
2022/09/30 04:47:08;;;;;;;;;;;6.30;99.90;;;;;;4905908;29;20272;-80
2022/09/30 04:49:34;;;;;;;;;;;6.40;99.90;;;;;;4899825;29;20174;-79
2022/09/30 04:52:00;;;;;;;;;;;6.40;99.90;;;;;;4901313;29;20174;-79
2022/09/30 04:54:26;;;;;;;;;;;6.40;99.90;;;;;;4900377;29;20202;-79
2022/09/30 04:56:51;;;;;;;;;;;6.40;99.90;;;;;;4884276;29;19911;-79
2022/09/30 04:59:17;;;;;;;;;;;6.30;99.90;;;;;;4892146;29;19963;-79
2022/09/30 05:01:43;;;;;;;;;;;6.30;99.90;;;;;;4891202;29;19934;-80
2022/09/30 05:04:11;;;;;;;;;;;6.30;99.90;;;;;;4891127;29;19944;-79
2022/09/30 05:06:39;;;;;;;;;;;6.30;99.90;;;;;;4890583;29;19916;-80
2022/09/30 05:09:05;;;;;;;;;;;6.40;99.90;;;;;;4909566;29;19912;-79
2022/09/30 05:11:31;;;;;;;;;;;6.40;99.90;;;;;;4910174;29;19919;-80
2022/09/30 05:13:57;;;;;;;;;;;6.40;99.90;;;;;;4894812;29;19911;-81
2022/09/30 05:16:22;;;;;;;;;;;6.40;99.90;;;;;;4910525;29;19938;-81
2022/09/30 05:18:48;;;;;;;;;;;6.50;99.90;;;;;;4912061;29;20340;-81
2022/09/30 05:21:15;;;;;;;;;;;6.50;99.90;;;;;;4895356;29;20233;-80
2022/09/30 05:23:41;;;;;;;;;;;6.40;99.90;;;;;;4895730;29;19982;-79
2022/09/30 05:26:07;;;;;;;;;;;6.40;99.90;;;;;;4910619;29;19911;-81
2022/09/30 05:28:32;;;;;;;;;;;6.40;99.90;;;;;;4910514;29;19911;-80
2022/09/30 05:31:04;;;;;;;;;;;6.40;99.90;;;;;;4911766;29;19935;-79
2022/09/30 05:33:30;;;;;;;;;;;6.50;99.90;;;;;;4904965;29;19939;-79
2022/09/30 05:36:00;;;;;;;;;;;6.50;99.90;;;;;;4891497;29;19919;-77
2022/09/30 05:38:26;;;;;;;;;;;6.50;99.90;;;;;;4897193;29;19920;-78
2022/09/30 05:40:52;;;;;;;;;;;6.50;99.90;;;;;;4898473;29;20123;-79
2022/09/30 05:43:18;;;;;;;;;;;6.60;99.90;;;;;;4904480;29;19988;-77
2022/09/30 05:45:54;;;;;;;;;;;6.60;99.90;;;;;;4908349;29;20295;-77
2022/09/30 05:48:19;;;;;;;;;;;6.60;99.90;;;;;;4908113;29;19923;-77
2022/09/30 05:50:48;;;;;;;;;;;6.60;99.90;;;;;;4908391;29;19951;-77
2022/09/30 05:53:14;;;;;;;;;;;6.70;99.90;;;;;;4909070;29;19930;-77
2022/09/30 05:55:44;;;;;;;;;;;6.70;99.90;;;;;;4904595;29;19912;-77
2022/09/30 05:58:10;;;;;;;;;;;6.70;99.90;;;;;;4888990;29;19943;-77
2022/09/30 06:00:40;;;;;;;;;;;6.70;99.90;;;;;;4901446;29;19934;-77
2022/09/30 06:03:06;;;;;;;;;;;6.70;99.90;;;;;;4902480;29;19915;-77
2022/09/30 06:05:31;;;;;;;;;;;6.80;99.90;;;;;;4908087;29;19915;-77
2022/09/30 06:07:57;;;;;;;;;;;6.70;99.90;;;;;;4908587;29;19923;-77
2022/09/30 06:10:23;;;;;;;;;;;6.70;99.90;;;;;;4907323;29;19912;-77
2022/09/30 06:12:48;;;;;;;;;;;6.70;99.90;;;;;;4908676;29;19911;-77
2022/09/30 06:15:14;;;;;;;;;;;6.70;99.90;;;;;;4907877;29;19920;-77
2022/09/30 06:17:41;;;;;;;;;;;6.60;99.90;;;;;;4891401;29;19978;-78
2022/09/30 06:20:08;;;;;;;;;;;6.60;99.90;;;;;;4908887;29;19911;-78
2022/09/30 06:22:37;;;;;;;;;;;6.60;99.90;;;;;;4907771;29;19920;-78
2022/09/30 06:25:04;;;;;;;;;;;6.60;99.90;;;;;;4917206;29;19960;-79
2022/09/30 06:27:30;;;;;;;;;;;6.60;99.90;;;;;;4911099;29;20134;-79
2022/09/30 06:29:56;;;;;;;;;;;6.50;99.90;;;;;;4927005;29;20110;-79
2022/09/30 06:32:24;;;;;;;;;;;6.60;99.90;;;;;;4927597;29;19982;-78
2022/09/30 06:34:51;;;;;;;;;;;6.60;99.90;;;;;;4927831;29;19947;-79
2022/09/30 06:37:17;;;;;;;;;;;6.50;99.90;;;;;;4910884;29;20360;-78
2022/09/30 06:39:43;;;;;;;;;;;6.50;99.90;;;;;;4909816;29;20002;-78
2022/09/30 06:42:10;;;;;;;;;;;6.60;99.90;;;;;;4904355;29;19928;-78
2022/09/30 06:44:35;;;;;;;;;;;6.60;99.90;;;;;;4888532;29;20111;-80
2022/09/30 06:47:01;;;;;;;;;;;6.70;99.90;;;;;;4888736;29;19982;-80
2022/09/30 06:49:27;;;;;;;;;;;6.70;99.90;;;;;;4889553;29;20212;-80
2022/09/30 06:51:52;;;;;;;;;;;6.80;99.90;;;;;;4890634;29;19918;-80
2022/09/30 06:54:19;;;;;;;;;;;6.70;99.90;;;;;;4890872;29;19916;-80
2022/09/30 06:56:48;;;;;;;;;;;6.80;99.90;;;;;;4889710;29;20114;-80
2022/09/30 06:59:16;;;;;;;;;;;6.90;99.90;;;;;;4907792;29;19928;-78
2022/09/30 07:01:43;;;;;;;;;;;6.90;99.90;;;;;;4909204;29;20110;-81
2022/09/30 07:04:10;;;;;;;;;;;7.00;99.90;;;;;;4910422;29;20210;-80
2022/09/30 07:06:43;;;;;;;;;;;7.00;99.90;;;;;;5104205;27;19943;-81
2022/09/30 07:09:08;;;;;;;;;;;7.10;99.90;;;;;;5102289;28;19920;-81
2022/09/30 07:11:36;;;;;;;;;;;7.10;99.90;;;;;;5081125;28;20027;-81
2022/09/30 07:14:03;;;;;;;;;;;7.10;99.90;;;;;;5080355;28;19915;-81
2022/09/30 07:16:30;;;;;;;;;;;7.10;99.90;;;;;;5082286;28;19923;-80
2022/09/30 07:18:57;;;;;;;;;;;7.10;99.90;;;;;;5064438;28;19908;-81
2022/09/30 07:21:22;;;;;;;;;;;7.10;99.90;;;;;;5081012;28;20242;-80
2022/09/30 07:23:48;;;;;;;;;;;7.10;99.90;;;;;;5080391;28;19908;-80
2022/09/30 07:26:15;;;;;;;;;;;7.10;99.90;;;;;;5080264;28;19921;-79
2022/09/30 07:28:42;;;;;;;;;;;7.10;99.90;;;;;;5079789;28;19908;-80
2022/09/30 07:31:19;;;;;;;;;;;7.10;99.90;;;;;;5080065;28;19909;-79
2022/09/30 07:33:45;;;;;;;;;;;7.20;99.90;;;;;;5079842;28;19915;-80
2022/09/30 07:36:11;;;;;;;;;;;7.30;99.90;;;;;;5078660;28;19939;-80
2022/09/30 07:38:39;;;;;;;;;;;7.40;99.90;;;;;;5079128;28;19939;-81
2022/09/30 07:41:13;;;;;;;;;;;7.50;99.90;;;;;;5076337;28;19916;-78
2022/09/30 07:43:39;;;;;;;;;;;7.50;99.90;;;;;;5069768;28;19916;-73
2022/09/30 07:46:07;;;;;;;;;;;7.60;99.90;;;;;;5077497;28;19978;-73
2022/09/30 07:48:44;;;;;;;;;;;7.70;99.90;;;;;;5078352;28;19909;-74
2022/09/30 07:51:12;;;;;;;;;;;7.80;99.90;;;;;;5078084;28;19909;-74
2022/09/30 07:53:39;;;;;;;;;;;7.90;99.90;;;;;;5078314;28;19994;-74
2022/09/30 07:56:05;;;;;;;;;;;7.90;99.90;;;;;;5077429;28;19940;-74
2022/09/30 07:58:30;;;;;;;;;;;7.90;99.90;;;;;;5078976;28;19915;-73
2022/09/30 08:00:56;;;;;;;;;;;7.90;99.90;;;;;;5076923;28;20226;-73
2022/09/30 08:03:22;;;;;;;;;;;8.00;99.90;;;;;;5077629;28;19909;-74
2022/09/30 08:05:47;;;;;;;;;;;8.00;99.90;;;;;;5077116;28;19955;-74
2022/09/30 08:08:14;;;;;;;;;;;8.00;99.90;;;;;;5077268;28;20398;-74
2022/09/30 08:10:40;;;;;;;;;;;8.00;99.90;;;;;;5076367;28;19908;-74
2022/09/30 08:13:06;;;;;;;;;;;8.00;99.90;;;;;;5072393;28;19908;-74
2022/09/30 08:15:31;;;;;;;;;;;8.10;99.90;;;;;;5057406;28;19917;-74
2022/09/30 08:17:57;;;;;;;;;;;8.10;99.90;;;;;;5047230;28;19924;-74
2022/09/30 08:20:23;;;;;;;;;;;8.20;99.90;;;;;;5064195;28;19940;-74
2022/09/30 08:22:54;;;;;;;;;;;8.30;99.90;;;;;;5065040;28;19913;-74
2022/09/30 08:25:21;;;;;;;;;;;8.40;99.90;;;;;;5063202;28;19912;-74
2022/09/30 08:27:47;;;;;;;;;;;8.50;99.90;;;;;;5063547;28;19912;-74
2022/09/30 08:30:13;;;;;;;;;;;8.50;99.90;;;;;;5063491;28;19970;-74
2022/09/30 08:32:38;;;;;;;;;;;8.50;99.90;;;;;;5065243;28;19943;-73
2022/09/30 08:35:05;;;;;;;;;;;8.60;99.90;;;;;;5064605;28;19917;-74
2022/09/30 08:37:30;;;;;;;;;;;8.60;99.90;;;;;;5065225;28;20385;-74
2022/09/30 08:39:56;;;;;;;;;;;8.60;99.90;;;;;;5065031;28;19908;-73
2022/09/30 08:42:50;;;;;;;;;;;8.70;99.90;;;;;;5062660;28;19913;-74
2022/09/30 08:45:29;;;;;;;;;;;8.70;99.90;;;;;;5066445;28;19920;-74
2022/09/30 08:48:16;;;;;;;;;;;8.80;99.90;;;;;;5076316;28;19916;-74
2022/09/30 08:51:06;;;;;;;;;;;8.90;99.90;;;;;;5062528;28;20088;-74
2022/09/30 08:53:37;;;;;;;;;;;9.10;99.90;;;;;;5064546;28;19908;-74
2022/09/30 08:56:02;;;;;;;;;;;9.20;99.90;;;;;;5063292;28;19931;-74
2022/09/30 08:58:30;;;;;;;;;;;9.30;99.90;;;;;;5063085;28;20295;-74
2022/09/30 09:01:14;;;;;;;;;;;9.50;99.90;;;;;;5063147;28;19909;-73
2022/09/30 09:03:40;;;;;;;;;;;9.50;99.90;;;;;;5047037;28;19975;-74
2022/09/30 09:06:14;;;;;;;;;;;9.60;99.90;;;;;;5046054;28;19924;-73
2022/09/30 09:09:01;;;;;;;;;;;9.70;99.90;;;;;;5063041;28;19932;-74
2022/09/30 09:11:48;;;;;;;;;;;9.70;99.90;;;;;;5063699;28;20108;-74
2022/09/30 09:14:38;;;;;;;;;;;9.80;99.90;;;;;;5056761;28;20318;-75
2022/09/30 09:17:28;;;;;;;;;;;9.80;99.90;;;;;;5042858;28;19925;-76
2022/09/30 09:20:08;;;;;;;;;;;9.90;99.90;;;;;;5055131;28;19917;-74
2022/09/30 09:22:35;;;;;;;;;;;10.00;99.90;;;;;;5062881;28;19974;-77
2022/09/30 09:25:00;;;;;;;;;;;10.10;99.90;;;;;;5061857;28;19912;-75
2022/09/30 09:27:36;;;;;;;;;;;10.20;99.90;;;;;;5061219;28;19939;-78
2022/09/30 09:30:16;;;;;;;;;;;10.30;99.90;;;;;;5061744;28;19977;-78
2022/09/30 09:32:42;;;;;;;;;;;10.40;99.90;;;;;;5047605;28;19947;-78
2022/09/30 09:35:28;;;;;;;;;;;10.50;99.90;;;;;;5062525;28;19916;-77
2022/09/30 09:38:24;;;;;;;;;;;10.50;99.90;;;;;;5045693;28;19975;-76
2022/09/30 09:41:14;;;;;;;;;;;10.50;99.90;;;;;;5062801;28;19909;-77
2022/09/30 09:43:44;;;;;;;;;;;10.50;99.90;;;;;;5063129;28;19909;-77
2022/09/30 09:46:36;;;;;;;;;;;10.40;99.90;;;;;;5063067;28;19913;-77
2022/09/30 09:49:22;;;;;;;;;;;10.50;99.90;;;;;;5045584;28;20171;-77
2022/09/30 09:51:51;;;;;;;;;;;10.60;99.90;;;;;;5062683;28;19916;-77
2022/09/30 09:54:18;;;;;;;;;;;10.60;99.90;;;;;;5063351;28;19909;-76
2022/09/30 09:56:43;;;;;;;;;;;10.70;99.90;;;;;;5062641;28;19915;-77
2022/09/30 09:59:16;;;;;;;;;;;10.70;99.90;;;;;;5057758;28;19917;-77
2022/09/30 10:01:43;;;;;;;;;;;10.90;99.90;;;;;;5044371;28;20190;-77
2022/09/30 10:04:10;;;;;;;;;;;11.00;99.90;;;;;;5062113;28;19966;-78
2022/09/30 10:06:43;;;;;;;;;;;11.10;99.90;;;;;;5061599;28;19916;-77
2022/09/30 10:09:21;;;;;;;;;;;11.30;99.90;;;;;;5060993;28;19967;-77
2022/09/30 10:11:47;;;;;;;;;;;11.30;99.90;;;;;;5062085;28;19912;-77
2022/09/30 10:14:18;;;;;;;;;;;11.30;99.90;;;;;;5044521;28;19917;-77
2022/09/30 10:16:43;;;;;;;;;;;11.30;99.90;;;;;;5061591;28;19909;-77
2022/09/30 10:19:35;;;;;;;;;;;11.30;99.90;;;;;;5045160;28;20115;-77
2022/09/30 10:22:06;;;;;;;;;;;11.30;99.90;;;;;;5062281;28;19916;-76
2022/09/30 10:24:32;;;;;;;;;;;11.40;99.90;;;;;;5062436;28;20131;-76
2022/09/30 10:26:58;;;;;;;;;;;11.60;99.90;;;;;;5060621;28;19908;-76
2022/09/30 10:29:30;;;;;;;;;;;11.70;99.90;;;;;;5062843;28;19917;-76
2022/09/30 10:31:56;;;;;;;;;;;11.90;99.90;;;;;;5045049;28;19909;-76
2022/09/30 10:34:27;;;;;;;;;;;12.20;99.90;;;;;;5061644;28;19909;-76
2022/09/30 10:36:53;;;;;;;;;;;12.40;99.90;;;;;;5061135;28;19932;-76
2022/09/30 10:39:26;;;;;;;;;;;12.70;99.90;;;;;;5060483;28;19983;-76
2022/09/30 10:42:16;;;;;;;;;;;12.80;99.90;;;;;;5057806;28;19915;-76
2022/09/30 10:44:48;;;;;;;;;;;13.00;99.90;;;;;;5053626;28;19976;-77
2022/09/30 10:47:16;;;;;;;;;;;13.20;99.90;;;;;;5040979;28;19956;-78
2022/09/30 10:49:45;;;;;;;;;;;13.30;99.90;;;;;;5041256;28;19909;-78
2022/09/30 10:52:16;;;;;;;;;;;13.40;99.90;;;;;;5041207;28;20108;-78
2022/09/30 10:54:46;;;;;;;;;;;13.60;99.90;;;;;;5041113;28;19915;-78
2022/09/30 10:57:19;;;;;;;;;;;13.60;99.90;;;;;;5040951;28;20143;-78
2022/09/30 10:59:45;;;;;;;;;;;13.70;99.90;;;;;;5041281;28;19909;-78
2022/09/30 11:02:34;;;;;;;;;;;13.80;99.90;;;;;;5040957;28;19924;-78
2022/09/30 11:05:28;;;;;;;;;;;13.90;99.90;;;;;;5041173;28;19917;-78
2022/09/30 11:08:24;;;;;;;;;;;14.20;99.90;;;;;;5044138;28;19920;-78
2022/09/30 11:11:19;;;;;;;;;;;14.60;99.90;;;;;;5061141;28;19909;-78
2022/09/30 11:13:56;;;;;;;;;;;14.90;99.90;;;;;;5055408;28;19955;-78
2022/09/30 11:16:49;;;;;;;;;;;15.10;99.90;;;;;;5081987;28;19913;-77
2022/09/30 11:19:18;;;;;;;;;;;15.20;99.90;;;;;;5047658;28;20218;-77
2022/09/30 11:22:13;;;;;;;;;;;15.40;99.90;;;;;;5094599;28;19912;-77
2022/09/30 11:24:43;;;;;;;;;;;15.50;99.90;;;;;;5069175;28;19936;-77
2022/09/30 11:27:35;;;;;;;;;;;15.90;99.90;;;;;;5104471;28;19917;-76
2022/09/30 11:30:05;;;;;;;;;;;16.10;99.90;;;;;;5045783;28;19980;-77
2022/09/30 11:33:12;;;;;;;;;;;16.10;99.90;;;;;;5061702;28;19909;-79
2022/09/30 11:35:41;;;;;;;;;;;16.00;99.90;;;;;;5060658;28;19908;-80
2022/09/30 11:38:31;;;;;;;;;;;15.80;99.90;;;;;;5061346;28;19984;-79
2022/09/30 11:40:59;;;;;;;;;;;15.60;99.90;;;;;;5062057;28;19972;-76
2022/09/30 11:43:46;;;;;;;;;;;15.50;99.90;;;;;;5059216;28;19915;-78
2022/09/30 11:46:12;;;;;;;;;;;15.50;99.90;;;;;;5041184;28;20207;-78
2022/09/30 11:48:54;;;;;;;;;;;15.70;99.90;;;;;;5044060;28;19913;-78
2022/09/30 11:51:47;;;;;;;;;;;16.00;99.90;;;;;;5060522;28;20265;-78
2022/09/30 11:54:21;;;;;;;;;;;16.30;99.90;;;;;;5071179;28;19916;-78
2022/09/30 11:56:55;;;;;;;;;;;16.60;99.90;;;;;;5069234;28;19908;-78
2022/09/30 11:59:33;;;;;;;;;;;16.90;99.90;;;;;;5049239;28;19915;-78
2022/09/30 12:02:01;;;;;;;;;;;17.30;99.90;;;;;;5066891;28;19917;-79
2022/09/30 12:04:34;;;;;;;;;;;17.50;99.90;;;;;;5050986;28;19915;-78
2022/09/30 12:07:19;;;;;;;;;;;17.70;99.90;;;;;;5054654;28;19988;-79
2022/09/30 12:09:48;;;;;;;;;;;17.80;99.90;;;;;;5055975;28;19979;-78
2022/09/30 12:12:16;;;;;;;;;;;17.70;99.90;;;;;;5070545;28;19948;-78
2022/09/30 12:15:00;;;;;;;;;;;17.50;99.90;;;;;;5053940;28;19909;-79
2022/09/30 12:17:30;;;;;;;;;;;17.40;99.90;;;;;;5053558;28;19975;-79
2022/09/30 12:19:58;;;;;;;;;;;17.10;99.90;;;;;;5054867;28;19975;-78
2022/09/30 12:22:29;;;;;;;;;;;16.80;99.90;;;;;;5053994;28;19923;-78
2022/09/30 12:24:55;;;;;;;;;;;16.70;99.90;;;;;;5070168;28;19949;-78
2022/09/30 12:27:32;;;;;;;;;;;16.80;99.90;;;;;;5069865;28;20150;-78
2022/09/30 12:30:19;;;;;;;;;;;17.50;99.90;;;;;;5081801;28;19908;-78
2022/09/30 12:33:03;;;;;;;;;;;18.30;99.90;;;;;;5056254;28;20203;-78
2022/09/30 12:35:54;;;;;;;;;;;18.60;99.90;;;;;;5087448;28;20199;-79
2022/09/30 12:38:44;;;;;;;;;;;18.70;99.90;;;;;;5039059;28;19915;-78
2022/09/30 12:41:14;;;;;;;;;;;18.60;99.90;;;;;;5066218;28;19912;-79
2022/09/30 12:43:50;;;;;;;;;;;18.40;99.90;;;;;;5068700;28;19912;-82
2022/09/30 12:46:22;;;;;;;;;;;18.50;99.90;;;;;;5073394;28;19919;-77
2022/09/30 12:49:02;;;;;;;;;;;18.50;99.90;;;;;;5082327;28;20199;-78
2022/09/30 12:51:33;;;;;;;;;;;18.70;99.90;;;;;;5053763;28;19916;-78
2022/09/30 12:54:11;;;;;;;;;;;19.50;99.90;;;;;;5068394;28;19970;-78
2022/09/30 12:56:37;;;;;;;;;;;20.10;99.90;;;;;;5048985;28;19909;-75
2022/09/30 12:59:03;;;;;;;;;;;20.50;99.90;;;;;;5047737;28;19979;-75
2022/09/30 13:01:30;;;;;;;;;;;20.80;99.90;;;;;;5045082;28;19924;-75
2022/09/30 13:03:58;;;;;;;;;;;21.10;97.60;;;;;;5029972;28;19979;-74
2022/09/30 13:06:25;;;;;;;;;;;21.70;97.80;;;;;;5072615;28;20108;-73
2022/09/30 13:09:15;;;;;;;;;;;22.40;95.50;;;;;;5066542;28;19909;-74
2022/09/30 13:11:44;;;;;;;;;;;22.90;89.10;;;;;;5083355;28;19909;-76
2022/09/30 13:14:13;;;;;;;;;;;23.30;90.40;;;;;;5066332;28;19953;-74
2022/09/30 13:17:01;;;;;;;;;;;23.60;83.20;;;;;;5083800;28;20234;-78
2022/09/30 13:19:43;;;;;;;;;;;23.80;79.30;;;;;;5078587;28;19930;-77
2022/09/30 13:22:39;;;;;;;;;;;23.90;73.20;;;;;;5067024;28;19916;-77
2022/09/30 13:25:14;;;;;;;;;;;23.40;75.80;;;;;;5083638;28;19927;-78
2022/09/30 13:27:41;;;;;;;;;;;22.80;80.30;;;;;;5065968;28;20198;-77
2022/09/30 13:30:13;;;;;;;;;;;22.50;81.90;;;;;;5080447;28;19940;-78
2022/09/30 13:32:41;;;;;;;;;;;22.30;83.50;;;;;;5069660;28;19955;-78
2022/09/30 13:35:32;;;;;;;;;;;22.70;84.30;;;;;;5049448;28;19912;-77
2022/09/30 13:38:13;;;;;;;;;;;23.30;83.90;;;;;;5078895;28;19936;-76
2022/09/30 13:41:02;;;;;;;;;;;24.40;76.00;;;;;;5063537;28;20239;-78
2022/09/30 13:44:02;;;;;;;;;;;25.30;67.30;;;;;;5076400;28;20245;-77
2022/09/30 13:46:35;;;;;;;;;;;25.70;61.50;;;;;;5049602;28;19912;-78
2022/09/30 13:49:41;;;;;;;;;;;26.30;63.90;;;;;;5065235;28;19915;-78
2022/09/30 13:52:13;;;;;;;;;;;26.60;61.40;;;;;;5058370;28;20213;-78
2022/09/30 13:54:39;;;;;;;;;;;26.50;60.60;;;;;;5065416;28;19924;-77
2022/09/30 13:57:05;;;;;;;;;;;26.80;59.40;;;;;;5065357;28;19962;-77
2022/09/30 13:59:34;;;;;;;;;;;27.70;58.70;;;;;;5066062;28;19913;-78
2022/09/30 14:02:12;;;;;;;;;;;27.90;54.40;;;;;;5055409;28;19972;-78
2022/09/30 14:04:47;;;;;;;;;;;28.00;55.10;;;;;;5081771;28;20234;-78
2022/09/30 14:07:16;;;;;;;;;;;27.70;54.90;;;;;;5080978;28;19916;-77
2022/09/30 14:09:59;;;;;;;;;;;27.20;55.40;;;;;;5049831;28;19915;-78
2022/09/30 14:12:53;;;;;;;;;;;26.50;51.90;;;;;;5034054;28;19921;-77
2022/09/30 14:15:41;;;;;;;;;;;26.00;56.20;;;;;;5082153;28;19916;-78
2022/09/30 14:18:22;;;;;;;;;;;26.10;53.90;;;;;;5082900;28;20190;-76
2022/09/30 14:21:00;;;;;;;;;;;25.90;57.30;;;;;;5082468;28;19923;-77
2022/09/30 14:23:26;;;;;;;;;;;26.40;56.30;;;;;;5083948;28;19908;-77
2022/09/30 14:26:10;;;;;;;;;;;27.30;52.70;;;;;;5048523;28;19957;-77
2022/09/30 14:29:06;;;;;;;;;;;28.20;50.30;;;;;;5084260;28;19909;-78
2022/09/30 14:31:32;;;;;;;;;;;29.20;42.80;;;;;;5061509;28;19909;-78
2022/09/30 14:33:58;;;;;;;;;;;29.60;41.90;;;;;;5054840;28;19954;-78
2022/09/30 14:36:24;;;;;;;;;;;30.00;39.10;;;;;;5048092;28;20310;-78
2022/09/30 14:38:57;;;;;;;;;;;29.80;39.40;;;;;;5065694;28;19959;-77
2022/09/30 14:41:23;;;;;;;;;;;29.50;38.50;;;;;;5064763;28;20127;-78
2022/09/30 14:43:51;;;;;;;;;;;29.10;40.10;;;;;;5065180;28;19974;-78
2022/09/30 14:46:40;;;;;;;;;;;29.10;39.50;;;;;;5065429;28;19912;-79
2022/09/30 14:49:08;;;;;;;;;;;28.80;39.80;;;;;;5065177;28;19908;-79
2022/09/30 14:51:42;;;;;;;;;;;27.90;41.80;;;;;;5066047;28;19913;-78
2022/09/30 14:54:19;;;;;;;;;;;26.80;42.90;;;;;;5050939;28;20231;-79
2022/09/30 14:56:44;;;;;;;;;;;25.50;46.50;;;;;;5064846;28;19916;-78
2022/09/30 14:59:25;;;;;;;;;;;24.00;49.30;;;;;;5065922;28;19915;-78